Time;durP1;ratioP1;P1;durP2;ratioP2;P2;SDS_P1;SDS_P2;PMS_P1;PMS_P2;Temp;Humidity;BMP_temperature;BMP_pressure;BME280_temperature;BME280_humidity;BME280_pressure;Samples;Min_cycle;Max_cycle;Signal;HPM_P1;HPM_P2
2024/05/05 00:01:32;;;;;;;4.68;3.63;;;16.30;5.00;;;;;;5412232;26;20242;-73
2024/05/05 00:03:57;;;;;;;5.95;3.25;;;16.30;5.00;;;;;;5412154;26;20609;-72
2024/05/05 00:06:23;;;;;;;5.28;3.22;;;16.30;5.00;;;;;;5411901;26;20230;-72
2024/05/05 00:08:48;;;;;;;5.25;3.60;;;16.30;5.00;;;;;;5411912;26;20253;-73
2024/05/05 00:11:14;;;;;;;8.38;3.70;;;16.20;5.00;;;;;;5412082;26;20234;-73
2024/05/05 00:13:40;;;;;;;4.40;3.20;;;16.30;5.00;;;;;;5411920;26;20227;-73
2024/05/05 00:16:06;;;;;;;3.53;3.20;;;16.20;5.00;;;;;;5411284;26;20632;-73
2024/05/05 00:18:32;;;;;;;3.78;3.38;;;16.30;5.00;;;;;;5411170;26;20215;-73
2024/05/05 00:20:57;;;;;;;6.13;3.67;;;16.30;5.00;;;;;;5410945;26;20287;-73
2024/05/05 00:23:23;;;;;;;6.32;3.83;;;16.30;5.00;;;;;;5411936;26;20697;-73
2024/05/05 00:25:48;;;;;;;6.43;3.75;;;16.30;5.00;;;;;;5382209;26;20305;-72
2024/05/05 00:28:15;;;;;;;5.88;3.55;;;16.40;5.00;;;;;;5414896;26;20264;-73
2024/05/05 00:30:41;;;;;;;4.28;3.78;;;16.30;5.00;;;;;;5414426;26;20819;-73
2024/05/05 00:33:06;;;;;;;6.45;3.72;;;16.40;5.00;;;;;;5415071;26;20218;-72
2024/05/05 00:35:32;;;;;;;5.00;3.90;;;16.30;5.00;;;;;;5414658;26;20698;-73
2024/05/05 00:37:57;;;;;;;5.13;3.90;;;16.30;5.00;;;;;;5414998;26;20218;-73
2024/05/05 00:40:23;;;;;;;10.20;4.00;;;16.20;5.00;;;;;;5415036;26;20327;-73
2024/05/05 00:42:48;;;;;;;6.28;3.88;;;16.40;5.00;;;;;;5414766;26;20798;-73
2024/05/05 00:45:14;;;;;;;6.68;3.92;;;16.20;5.00;;;;;;5414189;26;20344;-72
2024/05/05 00:47:41;;;;;;;6.68;4.45;;;16.10;5.00;;;;;;5414659;26;20315;-73
2024/05/05 00:50:17;;;;;;;4.93;4.22;;;16.10;5.00;;;;;;5414542;26;20589;-73
2024/05/05 00:52:45;;;;;;;6.13;4.40;;;16.00;5.10;;;;;;5414680;26;20293;-73
2024/05/05 00:55:12;;;;;;;6.70;4.90;;;16.00;5.30;;;;;;5414656;26;20678;-73
2024/05/05 00:57:39;;;;;;;5.88;4.53;;;15.90;6.10;;;;;;5414819;26;20227;-73
2024/05/05 01:00:05;;;;;;;5.40;4.45;;;16.00;6.60;;;;;;5414525;26;20731;-73
2024/05/05 01:02:31;;;;;;;10.30;4.80;;;15.90;7.50;;;;;;5413802;26;20261;-73
2024/05/05 01:04:56;;;;;;;6.70;4.85;;;15.90;8.10;;;;;;5414000;26;20215;-73
2024/05/05 01:07:22;;;;;;;6.07;4.60;;;15.90;8.50;;;;;;5414198;26;20266;-74
2024/05/05 01:09:47;;;;;;;7.90;5.05;;;15.80;9.70;;;;;;5414067;26;20705;-74
2024/05/05 01:12:13;;;;;;;7.07;5.03;;;15.80;9.50;;;;;;5414590;26;20349;-73
2024/05/05 01:14:38;;;;;;;6.60;5.03;;;15.80;10.30;;;;;;5414545;26;20261;-74
2024/05/05 01:17:04;;;;;;;8.85;5.60;;;15.80;10.60;;;;;;5413912;26;20223;-74
2024/05/05 01:19:29;;;;;;;7.22;5.03;;;15.80;10.50;;;;;;5413382;26;20274;-74
2024/05/05 01:21:55;;;;;;;7.10;5.45;;;15.80;11.00;;;;;;5413379;26;20607;-74
2024/05/05 01:24:20;;;;;;;7.93;5.05;;;15.80;11.60;;;;;;5413779;26;20269;-74
2024/05/05 01:26:46;;;;;;;8.07;5.18;;;15.80;12.30;;;;;;5413801;26;20269;-74
2024/05/05 01:29:11;;;;;;;6.82;5.20;;;15.80;12.70;;;;;;5413997;26;20219;-74
2024/05/05 01:31:36;;;;;;;7.50;5.18;;;15.80;12.60;;;;;;5414266;26;20231;-74
2024/05/05 01:34:02;;;;;;;7.88;5.53;;;15.80;12.80;;;;;;5414281;26;20269;-74
2024/05/05 01:36:27;;;;;;;6.70;5.13;;;15.70;12.90;;;;;;5414162;26;20693;-74
2024/05/05 01:38:53;;;;;;;5.95;4.85;;;15.70;13.30;;;;;;5414088;26;20231;-74
2024/05/05 01:41:18;;;;;;;6.82;5.15;;;15.70;13.80;;;;;;5414249;26;20365;-74
2024/05/05 01:43:44;;;;;;;10.65;5.57;;;15.70;14.20;;;;;;5413923;26;20269;-73
2024/05/05 01:46:09;;;;;;;6.30;5.10;;;15.80;14.40;;;;;;5413510;26;20839;-73
2024/05/05 01:48:35;;;;;;;7.30;6.00;;;15.80;14.70;;;;;;5413280;26;20222;-74
2024/05/05 01:51:00;;;;;;;8.15;5.95;;;15.90;15.00;;;;;;5413437;26;20227;-74
2024/05/05 01:53:26;;;;;;;7.13;5.45;;;15.90;15.50;;;;;;5413042;26;20694;-73
2024/05/05 01:55:52;;;;;;;8.38;5.60;;;15.90;15.60;;;;;;5413787;26;20219;-74
2024/05/05 01:58:17;;;;;;;9.15;6.05;;;15.90;15.70;;;;;;5414236;26;20253;-74
2024/05/05 02:00:43;;;;;;;10.20;6.15;;;15.90;15.90;;;;;;5413689;26;20215;-74
2024/05/05 02:03:08;;;;;;;7.90;5.90;;;15.90;16.10;;;;;;5413439;26;20327;-73
2024/05/05 02:05:34;;;;;;;8.93;6.30;;;16.00;16.20;;;;;;5413737;26;20223;-73
2024/05/05 02:07:59;;;;;;;7.53;5.40;;;16.00;16.50;;;;;;5413976;26;20218;-74
2024/05/05 02:10:25;;;;;;;8.02;5.90;;;16.00;16.80;;;;;;5413398;26;20626;-73
2024/05/05 02:12:50;;;;;;;9.07;6.13;;;16.00;16.80;;;;;;5413876;26;20219;-74
2024/05/05 02:15:16;;;;;;;7.45;5.50;;;16.00;16.60;;;;;;5413501;26;20223;-73
2024/05/05 02:17:43;;;;;;;10.45;6.25;;;16.00;16.60;;;;;;5413494;26;20282;-73
2024/05/05 02:20:09;;;;;;;7.75;6.30;;;16.00;16.90;;;;;;5413418;26;20273;-74
2024/05/05 02:22:34;;;;;;;7.80;6.03;;;16.00;16.70;;;;;;5382482;26;20235;-74
2024/05/05 02:25:00;;;;;;;8.30;6.18;;;15.90;17.20;;;;;;5413565;26;20572;-73
2024/05/05 02:27:25;;;;;;;7.95;6.20;;;15.90;17.00;;;;;;5413523;26;20324;-74
2024/05/05 02:29:52;;;;;;;11.90;6.32;;;16.00;17.20;;;;;;5381952;26;20716;-74
2024/05/05 02:32:18;;;;;;;8.52;6.30;;;15.80;16.90;;;;;;5413053;26;20239;-73
2024/05/05 02:34:44;;;;;;;8.18;6.13;;;15.90;17.20;;;;;;5411381;26;20302;-74
2024/05/05 02:37:09;;;;;;;8.52;6.47;;;15.80;17.00;;;;;;5411933;26;20308;-73
2024/05/05 02:39:35;;;;;;;9.32;6.70;;;15.90;16.90;;;;;;5413376;26;20223;-73
2024/05/05 02:42:00;;;;;;;11.18;6.78;;;15.80;17.00;;;;;;5413111;26;20238;-74
2024/05/05 02:44:26;;;;;;;9.80;7.10;;;15.90;17.10;;;;;;5413273;26;20223;-73
2024/05/05 02:46:51;;;;;;;10.75;7.28;;;15.90;17.20;;;;;;5413093;26;20223;-73
2024/05/05 02:49:17;;;;;;;11.48;7.60;;;15.90;16.80;;;;;;5412430;26;20223;-73
2024/05/05 02:51:42;;;;;;;10.68;7.68;;;15.80;17.00;;;;;;5413356;26;20720;-73
2024/05/05 02:54:08;;;;;;;11.60;7.97;;;15.80;17.30;;;;;;5411178;26;20223;-73
2024/05/05 02:56:33;;;;;;;12.38;7.90;;;15.90;17.00;;;;;;5412065;26;20273;-73
2024/05/05 02:58:58;;;;;;;11.40;7.88;;;15.90;17.20;;;;;;5412808;26;20227;-73
2024/05/05 03:01:24;;;;;;;9.75;6.90;;;15.80;16.60;;;;;;5413095;26;20247;-74
2024/05/05 03:03:49;;;;;;;10.77;7.88;;;15.90;16.90;;;;;;5381919;26;20261;-73
2024/05/05 03:06:22;;;;;;;10.90;8.38;;;15.80;16.60;;;;;;5412348;26;20324;-73
2024/05/05 03:08:47;;;;;;;12.02;7.82;;;15.90;16.60;;;;;;5412626;26;20673;-73
2024/05/05 03:11:13;;;;;;;11.98;8.40;;;15.90;16.80;;;;;;5412554;26;20281;-73
2024/05/05 03:13:41;;;;;;;11.70;8.15;;;15.90;16.10;;;;;;5411848;26;20223;-73
2024/05/05 03:16:10;;;;;;;9.73;7.47;;;15.90;16.70;;;;;;5411920;26;20223;-73
2024/05/05 03:18:36;;;;;;;13.13;7.65;;;16.00;16.70;;;;;;5412638;26;20222;-73
2024/05/05 03:21:02;;;;;;;12.63;7.97;;;16.00;16.20;;;;;;5412053;26;20301;-73
2024/05/05 03:23:27;;;;;;;12.60;8.25;;;16.00;15.80;;;;;;5413110;26;20227;-73
2024/05/05 03:25:53;;;;;;;11.50;7.70;;;16.00;16.40;;;;;;5412469;26;20340;-73
2024/05/05 03:28:18;;;;;;;11.45;7.82;;;16.00;15.70;;;;;;5412772;26;20269;-73
2024/05/05 03:30:44;;;;;;;9.23;7.10;;;16.00;16.00;;;;;;5412630;26;20294;-73
2024/05/05 03:33:09;;;;;;;11.90;7.20;;;16.00;16.00;;;;;;5412799;26;20629;-73
2024/05/05 03:35:35;;;;;;;10.85;8.30;;;16.00;16.00;;;;;;5412334;26;20219;-73
2024/05/05 03:38:01;;;;;;;9.95;7.30;;;16.00;16.20;;;;;;5412564;26;20617;-73
2024/05/05 03:40:27;;;;;;;10.60;7.60;;;16.00;16.30;;;;;;5411609;26;20570;-73
2024/05/05 03:42:52;;;;;;;10.43;7.43;;;16.00;16.60;;;;;;5412233;26;20219;-73
2024/05/05 03:45:17;;;;;;;8.82;7.18;;;16.00;16.80;;;;;;5412027;26;20227;-73
2024/05/05 03:47:43;;;;;;;11.45;7.25;;;16.00;16.60;;;;;;5412569;26;20857;-73
2024/05/05 03:50:08;;;;;;;10.32;7.32;;;16.00;16.50;;;;;;5411634;26;20219;-73
2024/05/05 03:52:34;;;;;;;8.00;6.45;;;16.00;16.40;;;;;;5412249;26;20235;-73
2024/05/05 03:54:59;;;;;;;8.15;6.03;;;16.30;16.80;;;;;;5412391;26;20214;-73
2024/05/05 03:57:25;;;;;;;7.10;5.47;;;16.00;16.60;;;;;;5412060;26;20591;-73
2024/05/05 03:59:50;;;;;;;3.92;3.33;;;16.00;17.20;;;;;;5410562;26;20215;-73
2024/05/05 04:02:16;;;;;;;2.83;2.63;;;16.00;17.70;;;;;;5412149;26;20238;-73
2024/05/05 04:04:41;;;;;;;2.47;1.85;;;16.00;17.70;;;;;;5412091;26;20618;-73
2024/05/05 04:07:07;;;;;;;1.80;1.70;;;16.00;17.80;;;;;;5412145;26;20223;-73
2024/05/05 04:09:32;;;;;;;1.83;1.73;;;16.10;17.60;;;;;;5411772;26;20329;-73
2024/05/05 04:11:57;;;;;;;2.30;1.70;;;16.20;17.80;;;;;;5412525;26;20235;-73
2024/05/05 04:14:23;;;;;;;1.67;1.58;;;16.20;17.60;;;;;;5412171;26;20223;-73
2024/05/05 04:16:48;;;;;;;1.65;1.55;;;16.30;17.70;;;;;;5411349;26;20716;-73
2024/05/05 04:19:14;;;;;;;1.58;1.48;;;16.40;17.10;;;;;;5411702;26;20227;-73
2024/05/05 04:21:39;;;;;;;1.60;1.50;;;16.30;17.10;;;;;;5411806;26;20585;-73
2024/05/05 04:24:05;;;;;;;1.30;1.30;;;16.40;17.20;;;;;;5412091;26;20331;-73
2024/05/05 04:26:30;;;;;;;1.45;1.35;;;16.40;17.20;;;;;;5411717;26;20269;-73
2024/05/05 04:28:56;;;;;;;1.90;1.40;;;16.50;16.90;;;;;;5411625;26;20331;-73
2024/05/05 04:31:21;;;;;;;1.50;1.40;;;16.60;16.80;;;;;;5411023;26;20261;-73
2024/05/05 04:33:47;;;;;;;1.55;1.45;;;16.60;17.10;;;;;;5411631;26;20230;-73
2024/05/05 04:36:12;;;;;;;1.50;1.40;;;16.50;17.00;;;;;;5410152;26;20219;-74
2024/05/05 04:38:37;;;;;;;1.65;1.55;;;16.60;16.90;;;;;;5411551;26;20246;-73
2024/05/05 04:41:03;;;;;;;1.13;1.13;;;16.60;16.90;;;;;;5411830;26;20562;-74
2024/05/05 04:43:29;;;;;;;1.20;1.20;;;16.50;17.20;;;;;;5410969;26;20227;-73
2024/05/05 04:45:54;;;;;;;1.65;1.48;;;16.60;17.60;;;;;;5411157;26;20219;-74
2024/05/05 04:48:19;;;;;;;1.40;1.30;;;16.50;17.80;;;;;;5410650;26;20314;-74
2024/05/05 04:50:45;;;;;;;1.13;1.13;;;16.60;18.30;;;;;;5410785;26;20230;-73
2024/05/05 04:53:10;;;;;;;1.83;1.42;;;16.60;17.90;;;;;;5410397;26;20689;-73
2024/05/05 04:55:36;;;;;;;1.27;1.23;;;16.60;17.50;;;;;;5410476;26;20246;-73
2024/05/05 04:58:03;;;;;;;1.23;1.10;;;16.60;17.30;;;;;;5410526;26;20219;-73
2024/05/05 05:00:28;;;;;;;1.27;1.17;;;16.70;17.00;;;;;;5411206;26;21049;-73
2024/05/05 05:02:54;;;;;;;1.23;1.23;;;16.60;16.70;;;;;;5411198;26;20275;-73
2024/05/05 05:05:19;;;;;;;1.75;1.27;;;16.60;16.80;;;;;;5410212;26;20235;-74
2024/05/05 05:07:45;;;;;;;1.00;1.00;;;16.60;16.00;;;;;;5410634;26;20307;-72
2024/05/05 05:10:10;;;;;;;1.10;1.10;;;16.60;15.50;;;;;;5410310;26;20684;-73
2024/05/05 05:12:36;;;;;;;1.30;1.23;;;16.60;16.20;;;;;;5413304;26;20234;-74
2024/05/05 05:15:01;;;;;;;1.95;1.20;;;16.60;16.10;;;;;;5414587;26;20257;-73
2024/05/05 05:17:28;;;;;;;1.65;1.30;;;16.60;16.20;;;;;;5414349;26;20650;-73
2024/05/05 05:19:54;;;;;;;1.10;1.10;;;16.60;15.90;;;;;;5412618;26;20261;-73
2024/05/05 05:22:19;;;;;;;2.75;1.42;;;16.60;15.90;;;;;;5413547;26;20231;-73
2024/05/05 05:24:45;;;;;;;2.00;1.50;;;16.60;15.70;;;;;;5413989;26;20219;-73
2024/05/05 05:27:10;;;;;;;1.42;1.33;;;16.50;15.80;;;;;;5413577;26;20253;-73
2024/05/05 05:29:35;;;;;;;1.85;1.45;;;16.60;15.80;;;;;;5416491;26;20265;-78
2024/05/05 05:32:01;;;;;;;1.70;1.60;;;16.50;16.40;;;;;;5414022;26;20841;-72
2024/05/05 05:34:26;;;;;;;1.23;1.20;;;16.60;16.20;;;;;;5413757;26;20215;-73
2024/05/05 05:36:52;;;;;;;1.42;1.40;;;16.40;16.80;;;;;;5413734;26;20266;-73
2024/05/05 05:39:17;;;;;;;1.60;1.52;;;16.50;16.80;;;;;;5414211;26;20666;-73
2024/05/05 05:41:43;;;;;;;1.40;1.30;;;16.50;16.60;;;;;;5440486;26;20602;-73
2024/05/05 05:44:08;;;;;;;1.63;1.52;;;16.50;16.70;;;;;;5450184;26;20225;-73
2024/05/05 05:46:34;;;;;;;1.35;1.25;;;16.40;16.40;;;;;;5449629;26;20269;-73
2024/05/05 05:48:59;;;;;;;1.60;1.50;;;16.40;16.10;;;;;;5449166;26;20263;-74
2024/05/05 05:51:24;;;;;;;1.48;1.38;;;16.40;16.40;;;;;;5449504;26;20226;-72
2024/05/05 05:53:50;;;;;;;1.70;1.23;;;16.40;17.00;;;;;;5450046;26;20222;-73
2024/05/05 05:56:15;;;;;;;1.50;1.40;;;16.50;16.50;;;;;;5449504;26;20217;-73
2024/05/05 05:58:43;;;;;;;1.27;1.27;;;16.50;16.60;;;;;;5449799;26;20779;-73
2024/05/05 06:01:08;;;;;;;1.08;1.08;;;16.50;15.80;;;;;;5449851;26;20230;-72
2024/05/05 06:03:34;;;;;;;1.30;1.30;;;16.50;15.80;;;;;;5450111;26;20280;-73
2024/05/05 06:05:59;;;;;;;2.60;1.38;;;16.50;16.00;;;;;;5449663;26;20754;-73
2024/05/05 06:08:25;;;;;;;1.77;1.00;;;16.50;16.10;;;;;;5447999;26;20269;-73
2024/05/05 06:10:50;;;;;;;1.83;1.27;;;16.50;15.10;;;;;;5444661;26;20317;-74
2024/05/05 06:13:16;;;;;;;1.25;1.25;;;16.50;15.70;;;;;;5445433;26;20719;-73
2024/05/05 06:15:41;;;;;;;1.30;1.20;;;16.60;16.00;;;;;;5445392;26;20221;-74
2024/05/05 06:18:07;;;;;;;1.77;1.20;;;16.60;15.50;;;;;;5445811;26;20571;-74
2024/05/05 06:20:32;;;;;;;1.60;1.35;;;16.60;15.60;;;;;;5413899;26;20221;-73
2024/05/05 06:22:58;;;;;;;1.48;1.38;;;16.60;15.20;;;;;;5444841;26;20264;-73
2024/05/05 06:25:23;;;;;;;1.30;1.13;;;16.70;15.30;;;;;;5445756;26;20218;-74
2024/05/05 06:27:48;;;;;;;1.10;1.10;;;16.80;15.70;;;;;;5445396;26;20214;-73
2024/05/05 06:30:14;;;;;;;2.08;1.10;;;16.80;15.50;;;;;;5445172;26;20217;-73
2024/05/05 06:32:39;;;;;;;1.48;1.20;;;16.80;15.50;;;;;;5445707;26;20338;-72
2024/05/05 06:35:05;;;;;;;1.88;1.20;;;16.80;14.70;;;;;;5445593;26;20213;-72
2024/05/05 06:37:31;;;;;;;2.15;1.05;;;16.80;14.60;;;;;;5445647;26;20217;-72
2024/05/05 06:39:56;;;;;;;3.70;1.40;;;16.80;14.10;;;;;;5445066;26;20680;-72
2024/05/05 06:42:22;;;;;;;4.22;1.20;;;16.80;14.30;;;;;;5445219;26;20268;-72
2024/05/05 06:44:47;;;;;;;1.75;1.27;;;16.90;14.30;;;;;;5445423;26;20272;-72
2024/05/05 06:47:13;;;;;;;1.15;1.10;;;16.80;13.60;;;;;;5445128;26;20222;-72
2024/05/05 06:49:38;;;;;;;1.70;1.20;;;16.90;13.20;;;;;;5444618;26;20754;-73
2024/05/05 06:52:04;;;;;;;1.48;0.95;;;16.90;13.60;;;;;;5413478;26;20272;-73
2024/05/05 06:54:29;;;;;;;1.20;1.10;;;17.00;13.20;;;;;;5444727;26;20321;-73
2024/05/05 06:56:55;;;;;;;0.85;0.85;;;16.90;12.00;;;;;;5444613;26;20214;-73
2024/05/05 06:59:20;;;;;;;1.10;1.10;;;17.00;12.00;;;;;;5445025;26;20214;-73
2024/05/05 07:01:46;;;;;;;1.45;0.80;;;17.10;10.40;;;;;;5448863;26;20225;-73
2024/05/05 07:04:11;;;;;;;0.82;0.82;;;17.10;10.40;;;;;;5449266;26;20217;-73
2024/05/05 07:06:37;;;;;;;1.00;1.00;;;17.20;9.00;;;;;;5448451;26;20260;-73
2024/05/05 07:09:02;;;;;;;0.93;0.93;;;17.30;9.00;;;;;;5448620;26;20218;-73
2024/05/05 07:11:28;;;;;;;1.45;0.95;;;17.60;9.10;;;;;;5448514;26;20277;-72
2024/05/05 07:13:53;;;;;;;1.30;1.20;;;17.90;5.70;;;;;;5448737;26;20746;-73
2024/05/05 07:16:19;;;;;;;1.13;1.10;;;18.20;5.00;;;;;;5448474;26;20248;-72
2024/05/05 07:18:44;;;;;;;2.53;1.20;;;18.40;5.00;;;;;;5448921;26;20257;-72
2024/05/05 07:21:09;;;;;;;1.20;1.10;;;18.40;5.00;;;;;;5448482;26;20265;-73
2024/05/05 07:23:35;;;;;;;1.17;1.13;;;18.50;5.00;;;;;;5448633;26;20221;-74
2024/05/05 07:26:01;;;;;;;1.10;1.10;;;18.50;5.00;;;;;;5448152;26;20214;-73
2024/05/05 07:28:26;;;;;;;1.23;1.20;;;18.60;5.00;;;;;;5448958;26;20264;-73
2024/05/05 07:30:52;;;;;;;1.13;1.02;;;18.70;5.00;;;;;;5447972;26;20806;-72
2024/05/05 07:33:17;;;;;;;2.05;1.70;;;18.70;5.00;;;;;;5447967;26;20261;-72
2024/05/05 07:35:43;;;;;;;1.40;1.30;;;18.60;5.00;;;;;;5447949;26;20295;-72
2024/05/05 07:38:08;;;;;;;1.45;1.35;;;18.60;5.00;;;;;;5448305;26;20307;-72
2024/05/05 07:40:33;;;;;;;1.67;1.38;;;18.60;5.00;;;;;;5447615;26;20275;-72
2024/05/05 07:42:59;;;;;;;1.60;1.50;;;18.50;5.00;;;;;;5447474;26;20222;-73
2024/05/05 07:45:24;;;;;;;1.52;1.42;;;18.60;5.00;;;;;;5447109;26;20264;-72
2024/05/05 07:47:52;;;;;;;1.40;1.30;;;18.50;5.00;;;;;;5449114;26;20269;-72
2024/05/05 07:50:18;;;;;;;1.33;1.23;;;18.40;5.00;;;;;;5448156;26;20217;-73
2024/05/05 07:52:43;;;;;;;1.30;1.20;;;18.50;5.00;;;;;;5448141;26;20619;-73
2024/05/05 07:55:09;;;;;;;0.88;0.88;;;18.40;5.00;;;;;;5447773;26;20489;-73
2024/05/05 07:57:37;;;;;;;1.52;1.40;;;18.50;5.00;;;;;;5448007;26;20214;-72
2024/05/05 08:00:03;;;;;;;1.08;0.90;;;18.60;5.00;;;;;;5447972;26;20797;-73
2024/05/05 08:02:29;;;;;;;1.35;1.20;;;18.70;5.00;;;;;;5447952;26;20695;-73
2024/05/05 08:04:55;;;;;;;1.30;1.23;;;18.80;5.00;;;;;;5448253;26;20233;-73
2024/05/05 08:07:20;;;;;;;1.40;1.30;;;18.90;5.00;;;;;;5447899;26;20230;-72
2024/05/05 08:09:45;;;;;;;1.40;1.30;;;19.10;5.00;;;;;;5447990;26;20659;-73
2024/05/05 08:12:11;;;;;;;1.38;1.27;;;19.30;5.00;;;;;;5447728;26;20242;-72
2024/05/05 08:14:36;;;;;;;0.98;0.98;;;19.40;5.00;;;;;;5447584;26;20269;-73
2024/05/05 08:17:02;;;;;;;0.85;0.85;;;19.60;5.00;;;;;;5447643;26;20298;-73
2024/05/05 08:19:27;;;;;;;1.00;1.00;;;19.90;5.00;;;;;;5447790;26;20218;-73
2024/05/05 08:21:53;;;;;;;1.05;0.98;;;20.00;5.00;;;;;;5447605;26;20680;-73
2024/05/05 08:24:18;;;;;;;1.80;1.20;;;20.10;5.00;;;;;;5447914;26;20687;-73
2024/05/05 08:26:44;;;;;;;1.40;1.30;;;20.10;5.00;;;;;;5447820;26;20330;-73
2024/05/05 08:29:09;;;;;;;1.38;1.10;;;20.00;5.00;;;;;;5447606;26;20230;-73
2024/05/05 08:31:35;;;;;;;1.13;1.02;;;20.10;5.00;;;;;;5447667;26;20230;-73
2024/05/05 08:34:00;;;;;;;1.48;1.15;;;20.00;5.00;;;;;;5447960;26;20222;-73
2024/05/05 08:36:26;;;;;;;1.20;1.10;;;20.20;5.00;;;;;;5447247;26;20272;-73
2024/05/05 08:38:54;;;;;;;0.80;0.80;;;20.40;5.00;;;;;;5447027;26;20293;-73
2024/05/05 08:41:26;;;;;;;1.00;0.60;;;20.50;5.00;;;;;;5447214;26;20229;-73
2024/05/05 08:43:55;;;;;;;0.90;0.90;;;20.60;5.00;;;;;;5447212;26;20343;-73
2024/05/05 08:46:21;;;;;;;0.90;0.90;;;20.60;5.00;;;;;;5448488;26;20264;-73
2024/05/05 08:48:48;;;;;;;1.63;0.70;;;20.60;5.00;;;;;;5451307;26;20221;-72
2024/05/05 08:51:15;;;;;;;0.70;0.70;;;20.70;5.00;;;;;;5450744;26;20716;-72
2024/05/05 08:53:46;;;;;;;0.70;0.70;;;20.90;5.00;;;;;;5450924;26;20253;-73
2024/05/05 08:56:15;;;;;;;0.65;0.60;;;21.00;5.00;;;;;;5450659;26;20214;-72
2024/05/05 08:58:41;;;;;;;2.25;0.90;;;21.20;5.00;;;;;;5450791;26;20298;-73
2024/05/05 09:01:26;;;;;;;1.35;0.90;;;21.30;5.00;;;;;;5450022;26;20229;-73
2024/05/05 09:04:11;;;;;;;1.92;0.77;;;21.40;5.00;;;;;;5449911;26;20218;-73
2024/05/05 09:06:40;;;;;;;1.30;0.60;;;21.40;5.00;;;;;;5468104;21;20221;-73
2024/05/05 09:09:06;;;;;;;0.60;0.60;;;21.50;5.00;;;;;;5039924;26;10000477;-74
2024/05/05 09:11:32;;;;;;;0.77;0.77;;;21.50;5.00;;;;;;5417710;26;20219;-74
2024/05/05 09:14:17;;;;;;;0.60;0.60;;;21.60;5.00;;;;;;5450451;26;20252;-73
2024/05/05 09:16:48;;;;;;;1.85;0.60;;;21.70;5.00;;;;;;5418596;26;20222;-73
2024/05/05 09:19:14;;;;;;;0.47;0.47;;;21.70;5.00;;;;;;5450415;26;20318;-74
2024/05/05 09:21:40;;;;;;;0.65;0.65;;;21.80;5.00;;;;;;5072656;26;10000988;-75
2024/05/05 09:24:06;;;;;;;0.60;0.60;;;21.70;5.00;;;;;;5450365;26;20218;-74
2024/05/05 09:26:33;;;;;;;1.30;1.20;;;21.70;5.00;;;;;;5449762;26;20272;-75
2024/05/05 09:28:59;;;;;;;1.67;1.02;;;21.70;5.00;;;;;;5418645;26;20299;-76
2024/05/05 09:31:25;;;;;;;2.05;1.40;;;21.80;5.00;;;;;;5450069;26;20262;-75
2024/05/05 09:33:51;;;;;;;2.40;1.10;;;21.90;5.00;;;;;;5450469;26;20222;-75
2024/05/05 09:36:17;;;;;;;1.00;1.00;;;21.90;5.00;;;;;;5419354;26;20596;-76
2024/05/05 09:38:44;;;;;;;1.25;1.15;;;21.90;5.00;;;;;;5450201;26;20262;-74
2024/05/05 09:41:10;;;;;;;1.20;1.10;;;21.90;5.00;;;;;;5449907;26;20757;-75
2024/05/05 09:43:36;;;;;;;1.33;1.17;;;21.90;5.00;;;;;;5449745;26;20337;-75
2024/05/05 09:46:09;;;;;;;1.27;1.15;;;21.80;5.00;;;;;;5449907;26;20287;-75
2024/05/05 09:48:36;;;;;;;4.53;1.35;;;21.70;5.00;;;;;;5450041;26;20570;-76
2024/05/05 09:51:06;;;;;;;0.88;0.88;;;21.50;5.00;;;;;;5449941;26;20217;-75
2024/05/05 09:54:02;;;;;;;1.40;0.80;;;21.60;5.00;;;;;;5418091;26;20246;-75
2024/05/05 09:56:32;;;;;;;0.85;0.70;;;21.80;5.00;;;;;;5433775;26;20222;-76
2024/05/05 09:59:21;;;;;;;1.25;0.52;;;21.80;5.00;;;;;;5449748;26;20401;-74
2024/05/05 10:01:54;;;;;;;0.55;0.55;;;21.90;5.00;;;;;;5449968;26;20575;-74
2024/05/05 10:04:21;;;;;;;0.60;0.60;;;21.90;5.00;;;;;;5449791;26;20218;-73
2024/05/05 10:06:49;;;;;;;0.30;0.30;;;21.90;5.00;;;;;;5449199;26;20238;-72
2024/05/05 10:09:25;;;;;;;1.08;0.40;;;21.90;5.00;;;;;;5450131;26;20222;-74
2024/05/05 10:12:01;;;;;;;0.80;0.68;;;21.80;5.00;;;;;;5449869;26;20333;-74
2024/05/05 10:14:27;;;;;;;1.02;0.70;;;21.80;5.00;;;;;;5449878;26;20284;-75
2024/05/05 10:16:52;;;;;;;0.40;0.40;;;21.80;5.00;;;;;;5449255;26;20282;-75
2024/05/05 10:19:22;;;;;;;2.42;0.70;;;21.60;5.00;;;;;;5449389;26;20226;-74
2024/05/05 10:21:47;;;;;;;1.55;0.43;;;21.50;5.00;;;;;;5449485;26;20618;-75
2024/05/05 10:24:13;;;;;;;3.45;0.70;;;21.50;5.00;;;;;;5449519;26;20218;-74
2024/05/05 10:26:49;;;;;;;1.40;0.50;;;21.40;5.00;;;;;;5448967;26;20221;-74
2024/05/05 10:29:15;;;;;;;0.80;0.50;;;21.30;5.00;;;;;;5449538;26;20229;-74
2024/05/05 10:31:59;;;;;;;1.85;0.63;;;21.40;5.00;;;;;;5449073;26;20230;-72
2024/05/05 10:34:28;;;;;;;0.57;0.47;;;21.50;5.00;;;;;;5449350;26;20248;-74
2024/05/05 10:36:54;;;;;;;0.50;0.50;;;21.50;5.00;;;;;;5448994;26;20218;-74
2024/05/05 10:39:20;;;;;;;1.20;0.40;;;21.60;5.00;;;;;;5449251;26;20221;-74
2024/05/05 10:41:45;;;;;;;2.28;0.43;;;21.80;5.00;;;;;;5448609;26;20230;-74
2024/05/05 10:44:13;;;;;;;2.05;0.70;;;22.00;5.00;;;;;;5449528;26;20320;-73
2024/05/05 10:46:40;;;;;;;0.65;0.60;;;22.30;5.00;;;;;;5449485;26;20234;-74
2024/05/05 10:49:09;;;;;;;1.65;0.35;;;22.30;5.00;;;;;;5449068;26;20643;-72
2024/05/05 10:51:35;;;;;;;0.52;0.52;;;22.50;5.00;;;;;;5448589;26;20449;-74
2024/05/05 10:54:00;;;;;;;3.17;1.85;;;22.40;5.00;;;;;;5449018;26;20214;-75
2024/05/05 10:56:28;;;;;;;2.67;1.48;;;22.40;5.00;;;;;;5449038;26;20298;-74
2024/05/05 10:58:54;;;;;;;1.73;1.25;;;22.30;5.00;;;;;;5449341;26;20218;-73
2024/05/05 11:01:20;;;;;;;1.42;1.35;;;22.30;5.00;;;;;;5449076;26;20230;-73
2024/05/05 11:03:46;;;;;;;1.50;1.30;;;22.30;5.00;;;;;;5448971;26;20256;-74
2024/05/05 11:06:14;;;;;;;1.42;1.10;;;22.40;5.00;;;;;;5448494;26;20225;-73
2024/05/05 11:08:46;;;;;;;0.70;0.70;;;22.50;5.00;;;;;;5447838;26;20717;-74
2024/05/05 11:11:17;;;;;;;4.07;0.90;;;22.50;5.00;;;;;;5447603;26;20264;-73
2024/05/05 11:13:43;;;;;;;0.60;0.60;;;22.60;5.00;;;;;;5448919;26;20241;-73
2024/05/05 11:16:09;;;;;;;1.42;0.70;;;22.60;5.00;;;;;;5449042;26;20265;-73
2024/05/05 11:18:46;;;;;;;0.50;0.50;;;22.50;5.00;;;;;;5454577;26;20326;-74
2024/05/05 11:21:13;;;;;;;1.42;0.85;;;22.50;5.00;;;;;;5448228;26;20221;-74
2024/05/05 11:23:39;;;;;;;1.38;0.70;;;22.60;5.00;;;;;;5447529;26;20297;-74
2024/05/05 11:26:09;;;;;;;0.70;0.68;;;22.40;5.00;;;;;;5448313;26;20699;-74
2024/05/05 11:28:34;;;;;;;0.82;0.60;;;22.30;5.00;;;;;;5448516;26;20272;-74
2024/05/05 11:30:59;;;;;;;0.50;0.50;;;22.30;5.00;;;;;;5448680;26;20609;-74
2024/05/05 11:33:25;;;;;;;0.60;0.60;;;22.40;5.00;;;;;;5448368;26;20272;-74
2024/05/05 11:35:50;;;;;;;1.33;1.23;;;22.40;5.00;;;;;;5447929;26;20694;-74
2024/05/05 11:38:17;;;;;;;0.68;0.60;;;22.40;5.00;;;;;;5417152;26;20577;-75
2024/05/05 11:40:47;;;;;;;3.03;0.88;;;22.40;5.00;;;;;;5417249;26;20678;-75
2024/05/05 11:43:33;;;;;;;0.70;0.70;;;22.30;5.00;;;;;;5448667;26;20638;-74
2024/05/05 11:45:59;;;;;;;1.75;0.80;;;22.20;5.00;;;;;;5447696;26;20256;-74
2024/05/05 11:49:02;;;;;;;0.63;0.63;;;22.00;5.00;;;;;;5448045;26;20221;-75
2024/05/05 11:51:43;;;;;;;0.95;0.95;;;22.00;5.00;;;;;;5448093;26;20325;-74
2024/05/05 11:54:09;;;;;;;0.90;0.70;;;21.90;5.00;;;;;;5416110;26;20229;-75
2024/05/05 11:56:36;;;;;;;0.68;0.68;;;21.90;5.00;;;;;;5448068;26;20230;-74
2024/05/05 11:59:01;;;;;;;0.88;0.80;;;21.90;5.00;;;;;;5447963;26;20313;-74
2024/05/05 12:01:30;;;;;;;0.85;0.85;;;22.00;5.00;;;;;;5447925;26;20226;-74
2024/05/05 12:03:56;;;;;;;2.05;1.10;;;21.90;5.00;;;;;;5447402;26;20303;-73
2024/05/05 12:06:23;;;;;;;0.65;0.65;;;21.70;5.00;;;;;;5447875;26;20690;-74
2024/05/05 12:08:48;;;;;;;1.00;1.00;;;21.60;5.00;;;;;;5447927;26;20753;-73
2024/05/05 12:11:14;;;;;;;3.03;1.05;;;21.50;5.00;;;;;;5447926;26;20326;-74
2024/05/05 12:13:41;;;;;;;1.35;1.20;;;21.40;5.00;;;;;;5447839;26;20765;-74
2024/05/05 12:16:27;;;;;;;1.40;1.30;;;21.30;5.00;;;;;;5412438;26;20668;-73
2024/05/05 12:19:00;;;;;;;1.30;1.20;;;21.30;5.00;;;;;;5445890;26;20614;-72
2024/05/05 12:21:26;;;;;;;2.22;1.10;;;21.20;5.00;;;;;;5452096;26;20261;-73
2024/05/05 12:23:52;;;;;;;1.60;1.50;;;21.30;5.00;;;;;;5454706;26;20709;-73
2024/05/05 12:26:18;;;;;;;2.25;1.15;;;21.30;5.00;;;;;;5455242;26;20225;-74
2024/05/05 12:28:49;;;;;;;1.20;1.20;;;21.20;5.00;;;;;;5455555;26;20565;-73
2024/05/05 12:31:16;;;;;;;2.05;1.67;;;21.30;5.00;;;;;;5423240;26;20218;-74
2024/05/05 12:33:41;;;;;;;3.20;1.20;;;21.40;5.00;;;;;;5423025;26;20233;-72
2024/05/05 12:36:07;;;;;;;1.27;1.17;;;21.40;5.00;;;;;;5454906;26;20605;-72
2024/05/05 12:38:32;;;;;;;2.25;1.30;;;21.40;5.00;;;;;;5454694;26;20629;-75
2024/05/05 12:40:58;;;;;;;1.30;1.20;;;21.30;5.00;;;;;;5454686;26;20218;-72
2024/05/05 12:43:23;;;;;;;1.08;1.05;;;21.40;5.00;;;;;;5454942;26;20293;-74
2024/05/05 12:46:08;;;;;;;3.13;1.38;;;21.40;5.00;;;;;;5454689;26;20221;-73
2024/05/05 12:48:55;;;;;;;3.13;1.25;;;21.40;5.00;;;;;;5454750;26;20226;-73